sensor_id;sensor_type;location;lat;lon;timestamp;P1;durP1;ratioP1;P2;durP2;ratioP2
25333;SDS011;24559;53.590;9.764;2023-08-17T00:00:16;1.77;;;1.08;;
25333;SDS011;24559;53.590;9.764;2023-08-17T00:02:43;3.10;;;1.00;;
25333;SDS011;24559;53.590;9.764;2023-08-17T00:05:09;3.97;;;1.48;;
25333;SDS011;24559;53.590;9.764;2023-08-17T00:07:36;3.88;;;1.30;;
25333;SDS011;24559;53.590;9.764;2023-08-17T00:10:02;2.20;;;1.27;;
25333;SDS011;24559;53.590;9.764;2023-08-17T00:12:29;3.17;;;1.20;;
25333;SDS011;24559;53.590;9.764;2023-08-17T00:14:55;2.92;;;1.30;;
25333;SDS011;24559;53.590;9.764;2023-08-17T00:17:21;6.10;;;1.70;;
25333;SDS011;24559;53.590;9.764;2023-08-17T00:19:48;2.63;;;1.30;;
25333;SDS011;24559;53.590;9.764;2023-08-17T00:22:15;2.22;;;1.33;;
25333;SDS011;24559;53.590;9.764;2023-08-17T00:24:41;7.53;;;1.77;;
25333;SDS011;24559;53.590;9.764;2023-08-17T00:27:10;7.93;;;1.73;;
25333;SDS011;24559;53.590;9.764;2023-08-17T00:29:36;6.32;;;1.40;;
25333;SDS011;24559;53.590;9.764;2023-08-17T00:32:03;3.08;;;1.60;;
25333;SDS011;24559;53.590;9.764;2023-08-17T00:34:29;4.00;;;1.48;;
25333;SDS011;24559;53.590;9.764;2023-08-17T00:36:55;1.70;;;1.30;;
25333;SDS011;24559;53.590;9.764;2023-08-17T00:39:21;5.07;;;1.50;;
25333;SDS011;24559;53.590;9.764;2023-08-17T00:41:48;4.88;;;1.35;;
25333;SDS011;24559;53.590;9.764;2023-08-17T00:44:14;11.82;;;1.45;;
25333;SDS011;24559;53.590;9.764;2023-08-17T00:46:40;2.70;;;1.30;;
25333;SDS011;24559;53.590;9.764;2023-08-17T00:49:06;4.60;;;1.30;;
25333;SDS011;24559;53.590;9.764;2023-08-17T00:51:33;2.83;;;1.30;;
25333;SDS011;24559;53.590;9.764;2023-08-17T00:53:59;7.00;;;1.77;;
25333;SDS011;24559;53.590;9.764;2023-08-17T00:56:27;3.55;;;1.40;;
25333;SDS011;24559;53.590;9.764;2023-08-17T00:58:53;2.65;;;1.35;;
25333;SDS011;24559;53.590;9.764;2023-08-17T01:01:20;2.30;;;1.52;;
25333;SDS011;24559;53.590;9.764;2023-08-17T01:03:46;2.30;;;1.58;;
25333;SDS011;24559;53.590;9.764;2023-08-17T01:06:15;3.97;;;1.80;;
25333;SDS011;24559;53.590;9.764;2023-08-17T01:08:41;3.88;;;1.67;;
25333;SDS011;24559;53.590;9.764;2023-08-17T01:11:14;6.95;;;1.50;;
25333;SDS011;24559;53.590;9.764;2023-08-17T01:13:46;4.07;;;1.70;;
25333;SDS011;24559;53.590;9.764;2023-08-17T01:16:14;5.05;;;1.50;;
25333;SDS011;24559;53.590;9.764;2023-08-17T01:18:44;4.80;;;2.05;;
25333;SDS011;24559;53.590;9.764;2023-08-17T01:21:12;3.58;;;1.40;;
25333;SDS011;24559;53.590;9.764;2023-08-17T01:23:39;5.28;;;1.67;;
25333;SDS011;24559;53.590;9.764;2023-08-17T01:26:06;3.40;;;1.33;;
25333;SDS011;24559;53.590;9.764;2023-08-17T01:28:32;8.60;;;1.80;;
25333;SDS011;24559;53.590;9.764;2023-08-17T01:31:08;3.08;;;1.30;;
25333;SDS011;24559;53.590;9.764;2023-08-17T01:33:41;3.78;;;1.42;;
25333;SDS011;24559;53.590;9.764;2023-08-17T01:36:30;6.45;;;1.92;;
25333;SDS011;24559;53.590;9.764;2023-08-17T01:38:56;4.18;;;1.67;;
25333;SDS011;24559;53.590;9.764;2023-08-17T01:41:23;3.17;;;1.50;;
25333;SDS011;24559;53.590;9.764;2023-08-17T01:43:49;2.20;;;1.38;;
25333;SDS011;24559;53.590;9.764;2023-08-17T01:46:16;2.60;;;1.67;;
25333;SDS011;24559;53.590;9.764;2023-08-17T01:48:43;6.13;;;1.88;;
25333;SDS011;24559;53.590;9.764;2023-08-17T01:51:16;4.43;;;1.40;;
25333;SDS011;24559;53.590;9.764;2023-08-17T01:53:43;4.53;;;1.77;;
25333;SDS011;24559;53.590;9.764;2023-08-17T01:56:09;3.88;;;1.30;;
25333;SDS011;24559;53.590;9.764;2023-08-17T01:58:35;2.47;;;1.40;;
25333;SDS011;24559;53.590;9.764;2023-08-17T02:01:01;4.07;;;1.67;;
25333;SDS011;24559;53.590;9.764;2023-08-17T02:03:28;5.65;;;1.67;;
25333;SDS011;24559;53.590;9.764;2023-08-17T02:05:58;3.63;;;1.30;;
25333;SDS011;24559;53.590;9.764;2023-08-17T02:08:24;4.68;;;1.70;;
25333;SDS011;24559;53.590;9.764;2023-08-17T02:10:52;1.65;;;1.40;;
25333;SDS011;24559;53.590;9.764;2023-08-17T02:13:20;4.43;;;1.60;;
25333;SDS011;24559;53.590;9.764;2023-08-17T02:15:46;3.00;;;1.67;;
25333;SDS011;24559;53.590;9.764;2023-08-17T02:18:13;5.03;;;1.63;;
25333;SDS011;24559;53.590;9.764;2023-08-17T02:20:39;4.78;;;1.48;;
25333;SDS011;24559;53.590;9.764;2023-08-17T02:23:05;3.65;;;1.70;;
25333;SDS011;24559;53.590;9.764;2023-08-17T02:25:31;1.83;;;1.38;;
25333;SDS011;24559;53.590;9.764;2023-08-17T02:28:04;6.10;;;1.73;;
25333;SDS011;24559;53.590;9.764;2023-08-17T02:30:30;4.72;;;1.63;;
25333;SDS011;24559;53.590;9.764;2023-08-17T02:32:57;6.07;;;1.60;;
25333;SDS011;24559;53.590;9.764;2023-08-17T02:35:23;3.33;;;1.60;;
25333;SDS011;24559;53.590;9.764;2023-08-17T02:37:50;4.43;;;1.65;;
25333;SDS011;24559;53.590;9.764;2023-08-17T02:40:16;2.53;;;1.42;;
25333;SDS011;24559;53.590;9.764;2023-08-17T02:42:42;4.63;;;1.50;;
25333;SDS011;24559;53.590;9.764;2023-08-17T02:45:09;5.93;;;1.58;;
25333;SDS011;24559;53.590;9.764;2023-08-17T02:47:35;5.20;;;1.58;;
25333;SDS011;24559;53.590;9.764;2023-08-17T02:50:01;2.83;;;1.10;;
25333;SDS011;24559;53.590;9.764;2023-08-17T02:52:27;3.20;;;1.73;;
25333;SDS011;24559;53.590;9.764;2023-08-17T02:54:53;3.58;;;1.83;;
25333;SDS011;24559;53.590;9.764;2023-08-17T02:57:19;4.93;;;1.35;;
25333;SDS011;24559;53.590;9.764;2023-08-17T02:59:46;2.60;;;1.30;;
25333;SDS011;24559;53.590;9.764;2023-08-17T03:02:12;3.13;;;1.15;;
25333;SDS011;24559;53.590;9.764;2023-08-17T03:04:38;5.05;;;1.58;;
25333;SDS011;24559;53.590;9.764;2023-08-17T03:07:06;3.20;;;1.65;;
25333;SDS011;24559;53.590;9.764;2023-08-17T03:09:32;3.03;;;1.50;;
25333;SDS011;24559;53.590;9.764;2023-08-17T03:11:58;5.03;;;1.50;;
25333;SDS011;24559;53.590;9.764;2023-08-17T03:14:24;5.45;;;1.30;;
25333;SDS011;24559;53.590;9.764;2023-08-17T03:16:51;4.53;;;1.38;;
25333;SDS011;24559;53.590;9.764;2023-08-17T03:19:18;3.95;;;1.60;;
25333;SDS011;24559;53.590;9.764;2023-08-17T03:21:44;4.30;;;1.70;;
25333;SDS011;24559;53.590;9.764;2023-08-17T03:24:11;2.58;;;1.52;;
25333;SDS011;24559;53.590;9.764;2023-08-17T03:26:37;3.47;;;1.67;;
25333;SDS011;24559;53.590;9.764;2023-08-17T03:29:06;3.58;;;1.40;;
25333;SDS011;24559;53.590;9.764;2023-08-17T03:31:35;2.45;;;1.42;;
25333;SDS011;24559;53.590;9.764;2023-08-17T03:34:01;2.95;;;1.30;;
25333;SDS011;24559;53.590;9.764;2023-08-17T03:36:28;3.38;;;1.60;;
25333;SDS011;24559;53.590;9.764;2023-08-17T03:38:54;2.25;;;1.50;;
25333;SDS011;24559;53.590;9.764;2023-08-17T03:41:21;2.38;;;1.20;;
25333;SDS011;24559;53.590;9.764;2023-08-17T03:43:50;3.42;;;1.42;;
25333;SDS011;24559;53.590;9.764;2023-08-17T03:46:16;6.68;;;1.70;;
25333;SDS011;24559;53.590;9.764;2023-08-17T03:48:42;5.50;;;1.67;;
25333;SDS011;24559;53.590;9.764;2023-08-17T03:51:09;9.65;;;1.88;;
25333;SDS011;24559;53.590;9.764;2023-08-17T03:53:38;5.15;;;1.85;;
25333;SDS011;24559;53.590;9.764;2023-08-17T03:56:04;6.00;;;1.42;;
25333;SDS011;24559;53.590;9.764;2023-08-17T03:58:30;4.15;;;1.40;;
25333;SDS011;24559;53.590;9.764;2023-08-17T04:00:59;5.20;;;1.30;;
25333;SDS011;24559;53.590;9.764;2023-08-17T04:03:28;2.35;;;1.10;;
25333;SDS011;24559;53.590;9.764;2023-08-17T04:05:55;4.13;;;1.52;;
25333;SDS011;24559;53.590;9.764;2023-08-17T04:08:21;3.50;;;1.40;;
25333;SDS011;24559;53.590;9.764;2023-08-17T04:10:47;5.55;;;1.58;;
25333;SDS011;24559;53.590;9.764;2023-08-17T04:13:16;2.40;;;1.27;;
25333;SDS011;24559;53.590;9.764;2023-08-17T04:15:43;4.07;;;1.50;;
25333;SDS011;24559;53.590;9.764;2023-08-17T04:18:09;3.58;;;1.40;;
25333;SDS011;24559;53.590;9.764;2023-08-17T04:20:35;2.88;;;1.38;;
25333;SDS011;24559;53.590;9.764;2023-08-17T04:23:01;3.45;;;1.45;;
25333;SDS011;24559;53.590;9.764;2023-08-17T04:25:28;2.90;;;1.42;;
25333;SDS011;24559;53.590;9.764;2023-08-17T04:27:54;3.65;;;1.50;;
25333;SDS011;24559;53.590;9.764;2023-08-17T04:30:20;4.85;;;1.33;;
25333;SDS011;24559;53.590;9.764;2023-08-17T04:32:53;6.88;;;1.77;;
25333;SDS011;24559;53.590;9.764;2023-08-17T04:35:20;3.65;;;1.23;;
25333;SDS011;24559;53.590;9.764;2023-08-17T04:37:46;6.25;;;1.65;;
25333;SDS011;24559;53.590;9.764;2023-08-17T04:40:13;5.32;;;1.30;;
25333;SDS011;24559;53.590;9.764;2023-08-17T04:42:40;4.57;;;1.38;;
25333;SDS011;24559;53.590;9.764;2023-08-17T04:45:07;2.40;;;1.27;;
25333;SDS011;24559;53.590;9.764;2023-08-17T04:47:37;3.10;;;1.55;;
25333;SDS011;24559;53.590;9.764;2023-08-17T04:50:04;2.05;;;1.45;;
25333;SDS011;24559;53.590;9.764;2023-08-17T04:52:30;3.13;;;1.38;;
25333;SDS011;24559;53.590;9.764;2023-08-17T04:54:56;4.35;;;1.65;;
25333;SDS011;24559;53.590;9.764;2023-08-17T04:57:23;2.42;;;1.35;;
25333;SDS011;24559;53.590;9.764;2023-08-17T04:59:50;2.80;;;1.27;;
25333;SDS011;24559;53.590;9.764;2023-08-17T05:02:16;3.17;;;1.48;;
25333;SDS011;24559;53.590;9.764;2023-08-17T05:04:43;4.15;;;1.40;;
25333;SDS011;24559;53.590;9.764;2023-08-17T05:07:09;6.28;;;1.85;;
25333;SDS011;24559;53.590;9.764;2023-08-17T05:09:35;3.13;;;1.80;;
25333;SDS011;24559;53.590;9.764;2023-08-17T05:12:01;4.95;;;1.60;;
25333;SDS011;24559;53.590;9.764;2023-08-17T05:14:27;2.75;;;1.35;;
25333;SDS011;24559;53.590;9.764;2023-08-17T05:16:54;5.78;;;1.90;;
25333;SDS011;24559;53.590;9.764;2023-08-17T05:19:20;4.22;;;1.52;;
25333;SDS011;24559;53.590;9.764;2023-08-17T05:21:46;4.55;;;1.50;;
25333;SDS011;24559;53.590;9.764;2023-08-17T05:24:16;3.17;;;1.67;;
25333;SDS011;24559;53.590;9.764;2023-08-17T05:26:43;4.10;;;1.67;;
25333;SDS011;24559;53.590;9.764;2023-08-17T05:29:11;2.67;;;1.38;;
25333;SDS011;24559;53.590;9.764;2023-08-17T05:31:39;8.05;;;1.90;;
25333;SDS011;24559;53.590;9.764;2023-08-17T05:34:05;5.30;;;1.88;;
25333;SDS011;24559;53.590;9.764;2023-08-17T05:36:33;2.20;;;1.23;;
25333;SDS011;24559;53.590;9.764;2023-08-17T05:38:59;2.53;;;1.52;;
25333;SDS011;24559;53.590;9.764;2023-08-17T05:41:27;5.75;;;2.17;;
25333;SDS011;24559;53.590;9.764;2023-08-17T05:43:53;3.13;;;1.55;;
25333;SDS011;24559;53.590;9.764;2023-08-17T05:46:20;4.53;;;1.88;;
25333;SDS011;24559;53.590;9.764;2023-08-17T05:48:47;4.68;;;1.60;;
25333;SDS011;24559;53.590;9.764;2023-08-17T05:51:13;2.83;;;2.00;;
25333;SDS011;24559;53.590;9.764;2023-08-17T05:53:39;7.18;;;2.25;;
25333;SDS011;24559;53.590;9.764;2023-08-17T05:56:06;4.80;;;2.28;;
25333;SDS011;24559;53.590;9.764;2023-08-17T05:58:32;6.85;;;2.47;;
25333;SDS011;24559;53.590;9.764;2023-08-17T06:01:05;3.30;;;2.08;;
25333;SDS011;24559;53.590;9.764;2023-08-17T06:03:33;7.85;;;3.08;;
25333;SDS011;24559;53.590;9.764;2023-08-17T06:05:59;5.40;;;2.35;;
25333;SDS011;24559;53.590;9.764;2023-08-17T06:08:25;3.90;;;2.00;;
25333;SDS011;24559;53.590;9.764;2023-08-17T06:10:51;3.88;;;2.40;;
25333;SDS011;24559;53.590;9.764;2023-08-17T06:13:18;4.22;;;2.17;;
25333;SDS011;24559;53.590;9.764;2023-08-17T06:15:44;5.57;;;2.30;;
25333;SDS011;24559;53.590;9.764;2023-08-17T06:18:10;3.30;;;1.90;;
25333;SDS011;24559;53.590;9.764;2023-08-17T06:20:36;3.85;;;2.03;;
25333;SDS011;24559;53.590;9.764;2023-08-17T06:23:03;7.22;;;2.88;;
25333;SDS011;24559;53.590;9.764;2023-08-17T06:25:29;7.30;;;2.30;;
25333;SDS011;24559;53.590;9.764;2023-08-17T06:27:55;4.57;;;2.40;;
25333;SDS011;24559;53.590;9.764;2023-08-17T06:30:22;7.18;;;2.70;;
25333;SDS011;24559;53.590;9.764;2023-08-17T06:32:50;10.35;;;3.45;;
25333;SDS011;24559;53.590;9.764;2023-08-17T06:35:17;5.10;;;3.13;;
25333;SDS011;24559;53.590;9.764;2023-08-17T06:37:43;4.20;;;3.25;;
25333;SDS011;24559;53.590;9.764;2023-08-17T06:40:09;4.40;;;3.17;;
25333;SDS011;24559;53.590;9.764;2023-08-17T06:42:35;3.72;;;2.95;;
25333;SDS011;24559;53.590;9.764;2023-08-17T06:45:02;7.57;;;3.38;;
25333;SDS011;24559;53.590;9.764;2023-08-17T06:47:29;7.25;;;3.60;;
25333;SDS011;24559;53.590;9.764;2023-08-17T06:49:55;4.57;;;2.83;;
25333;SDS011;24559;53.590;9.764;2023-08-17T06:52:23;4.53;;;2.97;;
25333;SDS011;24559;53.590;9.764;2023-08-17T06:54:50;7.65;;;3.10;;
25333;SDS011;24559;53.590;9.764;2023-08-17T06:57:24;5.43;;;2.75;;
25333;SDS011;24559;53.590;9.764;2023-08-17T06:59:53;6.70;;;3.13;;
25333;SDS011;24559;53.590;9.764;2023-08-17T07:02:20;4.53;;;3.00;;
25333;SDS011;24559;53.590;9.764;2023-08-17T07:04:46;6.28;;;3.00;;
25333;SDS011;24559;53.590;9.764;2023-08-17T07:07:13;5.95;;;2.90;;
25333;SDS011;24559;53.590;9.764;2023-08-17T07:09:39;4.50;;;2.72;;
25333;SDS011;24559;53.590;9.764;2023-08-17T07:12:05;7.38;;;3.03;;
25333;SDS011;24559;53.590;9.764;2023-08-17T07:14:32;6.50;;;2.72;;
25333;SDS011;24559;53.590;9.764;2023-08-17T07:16:59;5.15;;;2.20;;
25333;SDS011;24559;53.590;9.764;2023-08-17T07:19:25;4.82;;;2.78;;
25333;SDS011;24559;53.590;9.764;2023-08-17T07:21:51;4.65;;;3.10;;
25333;SDS011;24559;53.590;9.764;2023-08-17T07:24:18;6.75;;;2.92;;
25333;SDS011;24559;53.590;9.764;2023-08-17T07:26:44;4.70;;;2.40;;
25333;SDS011;24559;53.590;9.764;2023-08-17T07:29:10;3.95;;;2.40;;
25333;SDS011;24559;53.590;9.764;2023-08-17T07:31:40;6.28;;;2.85;;
25333;SDS011;24559;53.590;9.764;2023-08-17T07:34:06;4.90;;;2.72;;
25333;SDS011;24559;53.590;9.764;2023-08-17T07:36:33;4.18;;;2.42;;
25333;SDS011;24559;53.590;9.764;2023-08-17T07:38:59;3.55;;;2.67;;
25333;SDS011;24559;53.590;9.764;2023-08-17T07:41:26;4.40;;;2.55;;
25333;SDS011;24559;53.590;9.764;2023-08-17T07:43:52;6.95;;;2.30;;
25333;SDS011;24559;53.590;9.764;2023-08-17T07:46:18;4.15;;;2.13;;
25333;SDS011;24559;53.590;9.764;2023-08-17T07:48:44;6.97;;;2.28;;
25333;SDS011;24559;53.590;9.764;2023-08-17T07:51:10;5.68;;;2.58;;
25333;SDS011;24559;53.590;9.764;2023-08-17T07:53:36;8.43;;;2.22;;
25333;SDS011;24559;53.590;9.764;2023-08-17T07:56:03;2.13;;;1.90;;
25333;SDS011;24559;53.590;9.764;2023-08-17T07:58:29;6.88;;;2.33;;
25333;SDS011;24559;53.590;9.764;2023-08-17T08:00:55;2.45;;;1.58;;
25333;SDS011;24559;53.590;9.764;2023-08-17T08:03:21;6.88;;;2.65;;
25333;SDS011;24559;53.590;9.764;2023-08-17T08:05:47;4.90;;;2.00;;
25333;SDS011;24559;53.590;9.764;2023-08-17T08:08:14;3.45;;;1.58;;
25333;SDS011;24559;53.590;9.764;2023-08-17T08:10:42;3.13;;;1.92;;
25333;SDS011;24559;53.590;9.764;2023-08-17T08:13:09;4.10;;;2.00;;
25333;SDS011;24559;53.590;9.764;2023-08-17T08:15:36;7.82;;;2.40;;
25333;SDS011;24559;53.590;9.764;2023-08-17T08:18:02;3.63;;;2.30;;
25333;SDS011;24559;53.590;9.764;2023-08-17T08:20:28;4.03;;;2.30;;
25333;SDS011;24559;53.590;9.764;2023-08-17T08:22:55;4.75;;;2.30;;
25333;SDS011;24559;53.590;9.764;2023-08-17T08:25:21;5.45;;;2.72;;
25333;SDS011;24559;53.590;9.764;2023-08-17T08:27:47;4.50;;;2.38;;
25333;SDS011;24559;53.590;9.764;2023-08-17T08:30:14;6.40;;;2.08;;
25333;SDS011;24559;53.590;9.764;2023-08-17T08:32:40;5.53;;;2.65;;
25333;SDS011;24559;53.590;9.764;2023-08-17T08:35:06;6.78;;;2.20;;
25333;SDS011;24559;53.590;9.764;2023-08-17T08:37:32;3.17;;;1.80;;
25333;SDS011;24559;53.590;9.764;2023-08-17T08:39:58;3.45;;;1.98;;
25333;SDS011;24559;53.590;9.764;2023-08-17T08:42:25;4.60;;;2.83;;
25333;SDS011;24559;53.590;9.764;2023-08-17T08:44:51;3.30;;;2.53;;
25333;SDS011;24559;53.590;9.764;2023-08-17T08:47:17;6.30;;;2.92;;
25333;SDS011;24559;53.590;9.764;2023-08-17T08:49:48;4.40;;;2.28;;
25333;SDS011;24559;53.590;9.764;2023-08-17T08:52:18;5.25;;;3.00;;
25333;SDS011;24559;53.590;9.764;2023-08-17T08:54:45;2.92;;;2.63;;
25333;SDS011;24559;53.590;9.764;2023-08-17T08:57:14;3.78;;;2.83;;
25333;SDS011;24559;53.590;9.764;2023-08-17T08:59:41;5.63;;;2.88;;
25333;SDS011;24559;53.590;9.764;2023-08-17T09:02:14;5.07;;;2.67;;
25333;SDS011;24559;53.590;9.764;2023-08-17T09:04:44;3.03;;;2.17;;
25333;SDS011;24559;53.590;9.764;2023-08-17T09:07:13;2.67;;;1.73;;
25333;SDS011;24559;53.590;9.764;2023-08-17T09:09:40;1.77;;;1.58;;
25333;SDS011;24559;53.590;9.764;2023-08-17T09:12:07;5.05;;;2.00;;
25333;SDS011;24559;53.590;9.764;2023-08-17T09:14:35;3.05;;;2.13;;
25333;SDS011;24559;53.590;9.764;2023-08-17T09:17:03;4.82;;;2.50;;
25333;SDS011;24559;53.590;9.764;2023-08-17T09:19:31;1.95;;;1.77;;
25333;SDS011;24559;53.590;9.764;2023-08-17T09:21:57;5.15;;;1.85;;
25333;SDS011;24559;53.590;9.764;2023-08-17T09:24:23;2.03;;;1.83;;
25333;SDS011;24559;53.590;9.764;2023-08-17T09:26:49;3.88;;;2.35;;
25333;SDS011;24559;53.590;9.764;2023-08-17T09:29:16;5.53;;;2.40;;
25333;SDS011;24559;53.590;9.764;2023-08-17T09:31:43;2.88;;;1.92;;
25333;SDS011;24559;53.590;9.764;2023-08-17T09:34:10;3.85;;;2.30;;
25333;SDS011;24559;53.590;9.764;2023-08-17T09:36:36;2.22;;;1.70;;
25333;SDS011;24559;53.590;9.764;2023-08-17T09:39:02;2.75;;;2.42;;
25333;SDS011;24559;53.590;9.764;2023-08-17T09:41:28;3.50;;;1.85;;
25333;SDS011;24559;53.590;9.764;2023-08-17T09:43:55;3.13;;;1.98;;
25333;SDS011;24559;53.590;9.764;2023-08-17T09:46:21;4.05;;;2.13;;
25333;SDS011;24559;53.590;9.764;2023-08-17T09:48:49;3.70;;;2.38;;
25333;SDS011;24559;53.590;9.764;2023-08-17T09:51:15;2.25;;;1.90;;
25333;SDS011;24559;53.590;9.764;2023-08-17T09:53:41;4.78;;;2.22;;
25333;SDS011;24559;53.590;9.764;2023-08-17T09:56:08;3.65;;;2.10;;
25333;SDS011;24559;53.590;9.764;2023-08-17T09:58:39;3.60;;;2.20;;
25333;SDS011;24559;53.590;9.764;2023-08-17T10:01:05;1.83;;;1.73;;
25333;SDS011;24559;53.590;9.764;2023-08-17T10:03:34;2.60;;;2.28;;
25333;SDS011;24559;53.590;9.764;2023-08-17T10:06:04;3.45;;;1.90;;
25333;SDS011;24559;53.590;9.764;2023-08-17T10:08:31;4.05;;;2.17;;
25333;SDS011;24559;53.590;9.764;2023-08-17T10:10:59;3.88;;;2.45;;
25333;SDS011;24559;53.590;9.764;2023-08-17T10:13:33;5.15;;;2.70;;
25333;SDS011;24559;53.590;9.764;2023-08-17T10:18:35;3.30;;;2.33;;
25333;SDS011;24559;53.590;9.764;2023-08-17T10:21:13;3.85;;;2.05;;
25333;SDS011;24559;53.590;9.764;2023-08-17T10:23:44;4.38;;;2.30;;
25333;SDS011;24559;53.590;9.764;2023-08-17T10:26:10;2.83;;;2.35;;
25333;SDS011;24559;53.590;9.764;2023-08-17T10:28:37;2.80;;;2.28;;
25333;SDS011;24559;53.590;9.764;2023-08-17T10:31:04;2.20;;;2.00;;
25333;SDS011;24559;53.590;9.764;2023-08-17T10:33:30;5.18;;;1.98;;
25333;SDS011;24559;53.590;9.764;2023-08-17T10:35:57;1.40;;;1.27;;
25333;SDS011;24559;53.590;9.764;2023-08-17T10:38:23;2.08;;;1.10;;
25333;SDS011;24559;53.590;9.764;2023-08-17T10:41:09;1.30;;;1.20;;
25333;SDS011;24559;53.590;9.764;2023-08-17T10:43:35;2.60;;;1.30;;
25333;SDS011;24559;53.590;9.764;2023-08-17T10:46:18;1.48;;;1.10;;
25333;SDS011;24559;53.590;9.764;2023-08-17T10:48:45;1.40;;;1.30;;
25333;SDS011;24559;53.590;9.764;2023-08-17T10:51:11;3.83;;;1.30;;
25333;SDS011;24559;53.590;9.764;2023-08-17T10:53:38;1.40;;;1.30;;
25333;SDS011;24559;53.590;9.764;2023-08-17T10:56:10;1.38;;;1.27;;
25333;SDS011;24559;53.590;9.764;2023-08-17T10:58:37;2.88;;;1.27;;
25333;SDS011;24559;53.590;9.764;2023-08-17T11:01:03;1.52;;;1.20;;
25333;SDS011;24559;53.590;9.764;2023-08-17T11:03:30;1.50;;;1.10;;
25333;SDS011;24559;53.590;9.764;2023-08-17T11:05:56;2.47;;;1.27;;
25333;SDS011;24559;53.590;9.764;2023-08-17T11:08:33;1.50;;;1.40;;
25333;SDS011;24559;53.590;9.764;2023-08-17T11:11:06;1.55;;;1.20;;
25333;SDS011;24559;53.590;9.764;2023-08-17T11:13:37;3.70;;;1.10;;
25333;SDS011;24559;53.590;9.764;2023-08-17T11:16:04;1.55;;;1.40;;
25333;SDS011;24559;53.590;9.764;2023-08-17T11:18:34;2.97;;;1.55;;
25333;SDS011;24559;53.590;9.764;2023-08-17T11:21:01;3.00;;;1.20;;
25333;SDS011;24559;53.590;9.764;2023-08-17T11:23:29;2.45;;;1.60;;
25333;SDS011;24559;53.590;9.764;2023-08-17T11:25:55;1.90;;;1.67;;
25333;SDS011;24559;53.590;9.764;2023-08-17T11:28:26;1.98;;;1.60;;
25333;SDS011;24559;53.590;9.764;2023-08-17T11:30:59;1.88;;;1.70;;
25333;SDS011;24559;53.590;9.764;2023-08-17T11:33:26;4.35;;;1.58;;
25333;SDS011;24559;53.590;9.764;2023-08-17T11:35:59;3.83;;;1.80;;
25333;SDS011;24559;53.590;9.764;2023-08-17T11:38:25;2.50;;;1.63;;
25333;SDS011;24559;53.590;9.764;2023-08-17T11:40:52;2.50;;;2.13;;
25333;SDS011;24559;53.590;9.764;2023-08-17T11:43:18;3.42;;;1.90;;
25333;SDS011;24559;53.590;9.764;2023-08-17T11:45:45;3.40;;;1.73;;
25333;SDS011;24559;53.590;9.764;2023-08-17T11:48:12;3.35;;;2.28;;
25333;SDS011;24559;53.590;9.764;2023-08-17T11:50:42;2.70;;;1.98;;
25333;SDS011;24559;53.590;9.764;2023-08-17T11:53:08;3.22;;;1.88;;
25333;SDS011;24559;53.590;9.764;2023-08-17T11:55:34;2.65;;;2.45;;
25333;SDS011;24559;53.590;9.764;2023-08-17T11:58:01;3.22;;;2.10;;
25333;SDS011;24559;53.590;9.764;2023-08-17T12:00:27;3.40;;;1.90;;
25333;SDS011;24559;53.590;9.764;2023-08-17T12:03:00;3.03;;;2.10;;
25333;SDS011;24559;53.590;9.764;2023-08-17T12:05:26;7.65;;;1.98;;
25333;SDS011;24559;53.590;9.764;2023-08-17T12:07:54;2.50;;;1.55;;
25333;SDS011;24559;53.590;9.764;2023-08-17T12:10:21;3.05;;;2.08;;
25333;SDS011;24559;53.590;9.764;2023-08-17T12:12:50;2.17;;;1.90;;
25333;SDS011;24559;53.590;9.764;2023-08-17T12:15:17;4.63;;;2.33;;
25333;SDS011;24559;53.590;9.764;2023-08-17T12:17:46;2.08;;;1.77;;
25333;SDS011;24559;53.590;9.764;2023-08-17T12:20:19;3.42;;;2.00;;
25333;SDS011;24559;53.590;9.764;2023-08-17T12:22:47;3.15;;;2.10;;
25333;SDS011;24559;53.590;9.764;2023-08-17T12:25:13;3.10;;;2.80;;
25333;SDS011;24559;53.590;9.764;2023-08-17T12:27:40;4.75;;;1.95;;
25333;SDS011;24559;53.590;9.764;2023-08-17T12:30:13;2.95;;;2.10;;
25333;SDS011;24559;53.590;9.764;2023-08-17T12:32:40;2.10;;;1.90;;
25333;SDS011;24559;53.590;9.764;2023-08-17T12:35:06;3.05;;;2.00;;
25333;SDS011;24559;53.590;9.764;2023-08-17T12:37:33;2.83;;;2.05;;
25333;SDS011;24559;53.590;9.764;2023-08-17T12:39:59;5.03;;;2.45;;
25333;SDS011;24559;53.590;9.764;2023-08-17T12:42:25;3.55;;;2.67;;
25333;SDS011;24559;53.590;9.764;2023-08-17T12:44:51;4.95;;;2.50;;
25333;SDS011;24559;53.590;9.764;2023-08-17T12:47:17;3.38;;;2.00;;
25333;SDS011;24559;53.590;9.764;2023-08-17T12:49:43;3.97;;;2.00;;
25333;SDS011;24559;53.590;9.764;2023-08-17T12:52:10;4.80;;;2.30;;
25333;SDS011;24559;53.590;9.764;2023-08-17T12:54:36;2.70;;;2.10;;
25333;SDS011;24559;53.590;9.764;2023-08-17T12:57:02;2.72;;;2.40;;
25333;SDS011;24559;53.590;9.764;2023-08-17T12:59:29;3.10;;;2.50;;
25333;SDS011;24559;53.590;9.764;2023-08-17T13:01:55;2.67;;;2.47;;
25333;SDS011;24559;53.590;9.764;2023-08-17T13:04:21;4.95;;;2.20;;
25333;SDS011;24559;53.590;9.764;2023-08-17T13:06:47;2.47;;;2.28;;
25333;SDS011;24559;53.590;9.764;2023-08-17T13:09:16;3.28;;;2.25;;
25333;SDS011;24559;53.590;9.764;2023-08-17T13:11:44;2.90;;;2.63;;
25333;SDS011;24559;53.590;9.764;2023-08-17T13:14:11;3.60;;;2.75;;
25333;SDS011;24559;53.590;9.764;2023-08-17T13:16:37;3.33;;;2.70;;
25333;SDS011;24559;53.590;9.764;2023-08-17T13:19:04;2.03;;;1.83;;
25333;SDS011;24559;53.590;9.764;2023-08-17T13:21:30;3.50;;;2.00;;
25333;SDS011;24559;53.590;9.764;2023-08-17T13:23:56;2.33;;;1.80;;
25333;SDS011;24559;53.590;9.764;2023-08-17T13:26:22;3.60;;;1.83;;
25333;SDS011;24559;53.590;9.764;2023-08-17T13:28:49;5.32;;;2.22;;
25333;SDS011;24559;53.590;9.764;2023-08-17T13:31:15;2.10;;;1.88;;
25333;SDS011;24559;53.590;9.764;2023-08-17T13:33:41;3.83;;;2.13;;
25333;SDS011;24559;53.590;9.764;2023-08-17T13:36:08;3.92;;;2.05;;
25333;SDS011;24559;53.590;9.764;2023-08-17T13:38:34;4.13;;;2.22;;
25333;SDS011;24559;53.590;9.764;2023-08-17T13:41:00;3.10;;;2.25;;
25333;SDS011;24559;53.590;9.764;2023-08-17T13:43:27;3.33;;;1.77;;
25333;SDS011;24559;53.590;9.764;2023-08-17T13:45:53;7.10;;;2.20;;
25333;SDS011;24559;53.590;9.764;2023-08-17T13:48:19;2.75;;;2.38;;
25333;SDS011;24559;53.590;9.764;2023-08-17T13:50:45;2.60;;;1.92;;
25333;SDS011;24559;53.590;9.764;2023-08-17T13:53:12;6.28;;;2.42;;
25333;SDS011;24559;53.590;9.764;2023-08-17T13:55:38;5.13;;;1.88;;
25333;SDS011;24559;53.590;9.764;2023-08-17T13:58:04;2.17;;;1.50;;
25333;SDS011;24559;53.590;9.764;2023-08-17T14:00:30;2.22;;;1.27;;
25333;SDS011;24559;53.590;9.764;2023-08-17T14:02:56;1.27;;;1.00;;
25333;SDS011;24559;53.590;9.764;2023-08-17T14:05:23;3.45;;;1.25;;
25333;SDS011;24559;53.590;9.764;2023-08-17T14:07:49;3.50;;;1.15;;
25333;SDS011;24559;53.590;9.764;2023-08-17T14:10:15;0.77;;;0.70;;
25333;SDS011;24559;53.590;9.764;2023-08-17T14:12:41;10.52;;;1.20;;
25333;SDS011;24559;53.590;9.764;2023-08-17T14:15:08;2.05;;;0.88;;
25333;SDS011;24559;53.590;9.764;2023-08-17T14:17:34;1.65;;;1.00;;
25333;SDS011;24559;53.590;9.764;2023-08-17T14:20:00;0.80;;;0.80;;
25333;SDS011;24559;53.590;9.764;2023-08-17T14:22:27;2.72;;;0.80;;
25333;SDS011;24559;53.590;9.764;2023-08-17T14:24:54;1.75;;;0.95;;
25333;SDS011;24559;53.590;9.764;2023-08-17T14:27:20;1.67;;;0.73;;
25333;SDS011;24559;53.590;9.764;2023-08-17T14:29:46;0.63;;;0.63;;
25333;SDS011;24559;53.590;9.764;2023-08-17T14:32:12;1.77;;;1.10;;
25333;SDS011;24559;53.590;9.764;2023-08-17T14:34:38;1.20;;;0.80;;
25333;SDS011;24559;53.590;9.764;2023-08-17T14:37:05;1.42;;;0.70;;
25333;SDS011;24559;53.590;9.764;2023-08-17T14:39:31;1.77;;;0.80;;
25333;SDS011;24559;53.590;9.764;2023-08-17T14:41:57;0.90;;;0.65;;
25333;SDS011;24559;53.590;9.764;2023-08-17T14:44:24;0.70;;;0.60;;
25333;SDS011;24559;53.590;9.764;2023-08-17T14:46:50;3.20;;;0.82;;
25333;SDS011;24559;53.590;9.764;2023-08-17T14:49:16;0.70;;;0.70;;